Time;durP1;ratioP1;P1;durP2;ratioP2;P2;SDS_P1;SDS_P2;PMS_P1;PMS_P2;Temp;Humidity;BMP_temperature;BMP_pressure;BME280_temperature;BME280_humidity;BME280_pressure;Samples;Min_cycle;Max_cycle;Signal;HPM_P1;HPM_P2
2021/10/13 00:00:43;;;;;;;4.03;3.63;;;;;;;23.13;54.17;99213.72;4946754;29;20230;-80
2021/10/13 00:03:10;;;;;;;3.93;3.53;;;;;;;19.59;48.00;99211.03;4948301;29;20244;-80
2021/10/13 00:05:37;;;;;;;4.33;3.53;;;;;;;18.62;50.17;99200.19;4948529;29;20240;-80
2021/10/13 00:08:06;;;;;;;3.10;2.90;;;;;;;17.87;50.90;99212.25;4948602;29;20237;-80
2021/10/13 00:10:33;;;;;;;3.60;3.30;;;;;;;18.41;48.48;99218.47;4947195;29;20312;-82
2021/10/13 00:13:10;;;;;;;3.17;2.60;;;;;;;17.92;49.89;99190.53;4947355;29;20242;-82
2021/10/13 00:15:38;;;;;;;2.67;2.47;;;;;;;17.89;49.90;99204.63;4956166;23;20296;-82
2021/10/13 00:18:05;;;;;;;3.63;2.67;;;;;;;17.79;49.90;99202.78;4949531;29;20235;-81
2021/10/13 00:20:33;;;;;;;3.40;3.10;;;;;;;17.56;49.88;99212.31;4951386;29;20231;-81
2021/10/13 00:23:00;;;;;;;3.50;2.70;;;;;;;17.49;50.66;99205.56;4940882;23;20233;-82
2021/10/13 00:25:28;;;;;;;2.60;2.40;;;;;;;17.59;50.00;99225.31;4929675;29;20233;-81
2021/10/13 00:27:54;;;;;;;2.50;2.30;;;;;;;17.85;48.84;99219.84;4930588;29;20269;-82
2021/10/13 00:30:24;;;;;;;2.53;2.20;;;;;;;17.76;48.75;99206.06;4929248;29;20229;-82
2021/10/13 00:32:55;;;;;;;2.30;1.90;;;;;;;17.29;49.50;99201.00;4930453;29;20294;-82
2021/10/13 00:35:27;;;;;;;2.03;1.60;;;;;;;17.21;48.98;99215.09;4929784;29;20302;-83
2021/10/13 00:37:57;;;;;;;1.77;1.53;;;;;;;17.63;48.63;99219.38;4945534;29;20292;-82
2021/10/13 00:40:24;;;;;;;1.50;1.40;;;;;;;17.54;48.15;99222.59;4936110;23;20231;-82
2021/10/13 00:42:55;;;;;;;1.37;1.27;;;;;;;17.56;47.24;99233.97;4989396;23;20233;-83
2021/10/13 00:45:26;;;;;;;1.30;1.20;;;;;;;17.28;47.18;99242.69;4948299;29;20244;-82
2021/10/13 00:48:15;;;;;;;1.40;1.30;;;;;;;17.86;45.30;99249.38;4941785;23;20307;-83
2021/10/13 00:50:42;;;;;;;1.30;1.20;;;;;;;17.03;48.39;99237.31;4960445;23;20264;-81
2021/10/13 00:53:36;;;;;;;1.33;1.20;;;;;;;17.82;46.33;99252.91;4957130;29;20228;-82
2021/10/13 00:56:26;;;;;;;1.47;1.17;;;;;;;17.39;46.34;99255.13;4973764;23;20264;-81
2021/10/13 00:59:01;;;;;;;1.47;1.30;;;;;;;17.59;46.66;99246.19;4970102;23;20260;-82
2021/10/13 01:01:55;;;;;;;1.03;1.00;;;;;;;18.06;46.09;99262.03;5053907;23;20216;-81
2021/10/13 01:04:56;;;;;;;1.10;1.00;;;;;;;18.13;44.74;99265.25;4937904;23;20233;-82
2021/10/13 01:07:29;;;;;;;2.37;1.27;;;;;;;18.18;45.16;99264.44;5068726;23;20236;-82
2021/10/13 01:10:05;;;;;;;1.90;1.00;;;;;;;17.88;46.23;99268.88;4983284;23;20247;-82
2021/10/13 01:12:53;;;;;;;1.20;1.00;;;;;;;17.68;45.40;99273.53;4989385;23;20235;-81
2021/10/13 01:16:42;;;;;;;1.63;1.53;;;;;;;17.98;45.68;99282.38;4995655;28;20233;-82
2021/10/13 01:19:50;;;;;;;1.30;1.20;;;;;;;17.51;47.30;99284.63;4937002;28;20236;-82
2021/10/13 01:22:29;;;;;;;1.90;1.03;;;;;;;17.66;46.65;99291.97;4902946;29;20212;-82
2021/10/13 01:25:32;;;;;;;2.90;1.30;;;;;;;17.65;46.45;99296.56;4967838;23;20233;-84
2021/10/13 01:28:34;;;;;;;1.67;1.10;;;;;;;17.79;45.79;99305.75;4983686;23;20732;-82
2021/10/13 01:31:14;;;;;;;3.80;1.50;;;;;;;17.66;46.46;99306.31;4961227;23;20261;-82
2021/10/13 01:34:14;;;;;;;1.47;1.10;;;;;;;17.30;48.17;99310.09;4967115;23;20218;-83
2021/10/13 01:37:08;;;;;;;1.33;1.23;;;;;;;17.59;46.88;99306.59;4952669;23;20285;-82
2021/10/13 01:39:42;;;;;;;1.67;1.20;;;;;;;17.95;45.33;99304.63;4956877;29;20237;-82
2021/10/13 01:42:15;;;;;;;1.20;1.10;;;;;;;17.72;45.90;99317.97;4955643;29;20244;-83
2021/10/13 01:44:52;;;;;;;1.60;1.47;;;;;;;17.30;46.82;99315.53;4963970;23;20216;-83
2021/10/13 01:47:23;;;;;;;1.30;1.20;;;;;;;17.30;46.66;99332.59;4974937;23;20276;-83
2021/10/13 01:49:58;;;;;;;1.83;1.20;;;;;;;17.17;47.12;99325.78;4947793;29;20195;-83
2021/10/13 01:52:48;;;;;;;1.87;1.20;;;;;;;17.04;47.83;99328.22;4990214;23;20293;-83
2021/10/13 01:55:18;;;;;;;1.90;1.00;;;;;;;16.73;48.26;99320.06;4979263;29;20207;-82
2021/10/13 01:58:04;;;;;;;1.30;1.20;;;;;;;17.02;47.44;99325.78;4974226;23;20236;-82
2021/10/13 02:00:42;;;;;;;1.47;1.27;;;;;;;17.16;46.86;99316.06;4962423;23;20233;-82
2021/10/13 02:03:14;;;;;;;1.30;1.20;;;;;;;16.87;47.98;99327.66;4945774;29;20232;-82
2021/10/13 02:05:57;;;;;;;1.63;1.40;;;;;;;17.02;47.66;99333.09;4966934;23;20260;-82
2021/10/13 02:08:41;;;;;;;1.43;1.30;;;;;;;17.02;47.37;99322.28;4958783;29;20295;-82
2021/10/13 02:11:42;;;;;;;1.70;1.40;;;;;;;16.97;47.08;99333.91;4963591;29;20184;-82
2021/10/13 02:14:12;;;;;;;1.67;1.50;;;;;;;16.85;47.67;99338.72;4964248;23;20243;-83
2021/10/13 02:16:47;;;;;;;1.40;1.30;;;;;;;16.85;47.62;99351.44;4958813;29;20201;-82
2021/10/13 02:19:19;;;;;;;1.50;1.40;;;;;;;16.86;46.79;99348.47;4971164;23;20228;-82
2021/10/13 02:21:52;;;;;;;1.30;1.10;;;;;;;16.94;47.07;99349.84;4973331;29;20232;-82
2021/10/13 02:24:48;;;;;;;1.60;1.17;;;;;;;17.06;46.30;99340.41;4972096;29;20256;-82
2021/10/13 02:27:33;;;;;;;1.83;1.50;;;;;;;17.09;46.19;99352.59;4916632;29;20246;-83
2021/10/13 02:30:16;;;;;;;2.17;1.30;;;;;;;16.98;45.92;99353.66;4934940;29;20313;-84
2021/10/13 02:32:50;;;;;;;1.13;1.13;;;;;;;16.66;45.90;99351.94;4940370;23;20228;-83
2021/10/13 02:35:26;;;;;;;1.30;1.07;;;;;;;16.81;46.18;99347.66;4942616;29;20246;-83
2021/10/13 02:38:06;;;;;;;1.13;1.03;;;;;;;16.90;45.53;99352.28;4955754;29;20239;-83
2021/10/13 02:40:34;;;;;;;1.20;1.00;;;;;;;17.01;45.39;99347.72;4971783;29;20228;-83
2021/10/13 02:43:01;;;;;;;2.10;1.17;;;;;;;17.02;45.21;99365.56;4961829;23;20217;-83
2021/10/13 02:45:34;;;;;;;1.10;1.00;;;;;;;17.16;46.13;99367.50;4954745;29;20245;-82
2021/10/13 02:48:33;;;;;;;1.60;1.13;;;;;;;17.26;45.11;99371.31;4968670;23;20224;-83
2021/10/13 02:51:38;;;;;;;1.47;1.20;;;;;;;17.23;45.04;99377.22;4974970;23;20233;-83
2021/10/13 02:54:41;;;;;;;2.00;1.30;;;;;;;17.04;45.92;99382.34;4980286;23;20259;-80
2021/10/13 02:57:39;;;;;;;2.53;1.20;;;;;;;16.96;46.27;99380.97;4975206;29;20217;-82
2021/10/13 03:00:14;;;;;;;2.00;1.10;;;;;;;16.92;45.45;99385.31;4960005;23;20229;-82
2021/10/13 03:03:09;;;;;;;1.63;1.27;;;;;;;16.78;45.72;99405.81;4967660;23;20241;-82
2021/10/13 03:05:55;;;;;;;1.17;1.00;;;;;;;16.77;45.90;99404.19;4975776;29;20259;-83
2021/10/13 03:08:26;;;;;;;1.10;0.90;;;;;;;16.27;47.27;99405.56;4959930;29;20299;-82
2021/10/13 03:10:57;;;;;;;2.07;1.20;;;;;;;16.38;47.27;99408.34;4963396;23;20220;-83
2021/10/13 03:13:52;;;;;;;1.30;1.10;;;;;;;16.35;45.99;99406.94;4977248;23;20212;-82
2021/10/13 03:16:59;;;;;;;1.97;1.10;;;;;;;16.41;46.19;99411.31;4938215;29;20217;-83
2021/10/13 03:19:26;;;;;;;1.40;1.30;;;;;;;16.39;46.26;99413.47;4945485;23;20235;-82
2021/10/13 03:21:56;;;;;;;1.87;1.00;;;;;;;16.24;46.58;99421.47;4965100;23;20276;-82
2021/10/13 03:24:29;;;;;;;1.30;1.20;;;;;;;16.59;46.35;99420.91;4958346;29;20221;-83
2021/10/13 03:26:57;;;;;;;2.43;1.33;;;;;;;16.52;46.53;99425.69;4958997;29;20217;-83
2021/10/13 03:29:26;;;;;;;1.20;1.10;;;;;;;16.46;46.60;99424.03;4960312;23;20243;-83
2021/10/13 03:31:57;;;;;;;1.90;1.40;;;;;;;16.64;45.83;99439.84;4955044;29;20320;-82
2021/10/13 03:34:30;;;;;;;1.30;1.20;;;;;;;16.39;45.85;99421.56;4969618;23;20233;-82
2021/10/13 03:37:18;;;;;;;2.30;1.40;;;;;;;16.35;47.15;99443.97;4967938;23;20264;-83
2021/10/13 03:39:54;;;;;;;1.73;1.50;;;;;;;16.57;45.92;99445.44;4963305;29;20259;-82
2021/10/13 03:42:22;;;;;;;1.50;1.40;;;;;;;16.54;46.66;99453.28;4940776;29;20239;-83
2021/10/13 03:45:02;;;;;;;1.67;1.57;;;;;;;16.57;46.70;99452.75;4943814;29;20229;-82
2021/10/13 03:50:22;;;;;;;2.00;1.77;;;;;;;16.45;46.99;99463.78;4913452;29;20282;-82
2021/10/13 03:52:53;;;;;;;2.93;1.93;;;;;;;16.50;46.85;99463.00;4915592;29;20249;-83
2021/10/13 03:55:21;;;;;;;2.30;2.10;;;;;;;16.68;46.51;99470.69;4969987;23;20276;-83
2021/10/13 03:57:50;;;;;;;2.43;2.23;;;;;;;16.60;46.26;99447.69;4957180;28;20256;-83
2021/10/13 04:00:23;;;;;;;2.77;2.57;;;;;;;16.60;46.07;99460.38;4952398;29;20624;-82
2021/10/13 04:02:50;;;;;;;3.73;2.57;;;;;;;16.70;46.14;99460.44;4934358;29;20225;-82
2021/10/13 04:05:18;;;;;;;3.00;2.70;;;;;;;16.45;46.17;99454.84;4935900;29;20232;-83
2021/10/13 04:07:45;;;;;;;2.50;2.30;;;;;;;16.57;46.30;99472.50;4923003;29;20241;-83
2021/10/13 04:10:26;;;;;;;2.43;2.20;;;;;;;16.23;47.39;99474.75;4952098;29;20236;-82
2021/10/13 04:12:57;;;;;;;2.13;1.83;;;;;;;16.31;47.61;99484.25;4973148;29;20240;-83
2021/10/13 04:15:27;;;;;;;2.40;1.73;;;;;;;16.48;46.73;99486.78;4973428;29;20234;-82
2021/10/13 04:17:56;;;;;;;2.60;2.03;;;;;;;16.20;48.25;99486.06;4973273;29;20193;-83
2021/10/13 04:20:27;;;;;;;2.00;1.80;;;;;;;16.24;46.30;99470.94;4972302;29;20241;-82
2021/10/13 04:22:56;;;;;;;1.90;1.77;;;;;;;16.41;47.42;99480.81;4954488;23;20240;-81
2021/10/13 04:25:43;;;;;;;2.57;2.37;;;;;;;16.09;47.45;99475.44;4943561;23;20237;-82
2021/10/13 04:28:21;;;;;;;2.50;2.00;;;;;;;15.80;48.74;99474.94;4931816;23;20222;-82
2021/10/13 04:30:48;;;;;;;3.60;2.90;;;;;;;16.16;47.56;99468.75;4926734;29;20735;-82
2021/10/13 04:33:18;;;;;;;4.03;2.57;;;;;;;16.34;47.22;99486.41;5038294;23;20247;-82
2021/10/13 04:35:49;;;;;;;2.97;2.40;;;;;;;16.28;46.40;99482.06;4979892;23;20234;-82
2021/10/13 04:38:27;;;;;;;3.93;2.30;;;;;;;16.12;46.44;99491.13;4975796;23;20225;-82
2021/10/13 04:41:10;;;;;;;3.23;2.40;;;;;;;16.30;45.92;99488.84;4983463;23;20230;-81
2021/10/13 04:43:38;;;;;;;2.93;2.37;;;;;;;15.95;46.30;99475.06;5064975;23;20203;-81
2021/10/13 04:46:19;;;;;;;2.60;2.40;;;;;;;16.15;46.09;99486.03;4930618;29;20229;-82
2021/10/13 04:48:58;;;;;;;3.63;2.40;;;;;;;16.24;46.04;99492.56;4931579;23;20327;-82
2021/10/13 04:51:25;;;;;;;2.53;2.33;;;;;;;16.58;45.65;99492.28;4971705;29;20189;-82
2021/10/13 04:53:55;;;;;;;4.23;2.60;;;;;;;16.64;45.13;99480.44;4941552;29;20296;-81
2021/10/13 04:56:25;;;;;;;2.20;2.00;;;;;;;16.70;44.49;99498.31;4974873;23;20237;-80
2021/10/13 04:58:56;;;;;;;2.97;2.30;;;;;;;16.72;44.56;99496.16;4953701;29;20224;-82
2021/10/13 05:01:43;;;;;;;2.53;2.30;;;;;;;16.66;45.10;99506.13;4954031;29;20203;-81
2021/10/13 05:04:15;;;;;;;2.37;1.90;;;;;;;16.84;44.84;99502.19;4953510;23;20226;-82
2021/10/13 05:06:51;;;;;;;4.03;2.30;;;;;;;16.85;44.14;99513.78;4961620;23;20240;-82
2021/10/13 05:09:47;;;;;;;2.53;2.00;;;;;;;16.70;44.31;99512.63;4965970;23;20228;-81
2021/10/13 05:12:17;;;;;;;2.97;2.23;;;;;;;16.69;44.24;99502.91;4957137;29;20295;-81
2021/10/13 05:14:47;;;;;;;2.40;2.20;;;;;;;16.92;44.26;99506.25;4975229;29;20248;-82
2021/10/13 05:17:23;;;;;;;3.57;1.97;;;;;;;16.80;44.24;99516.50;4962147;23;20231;-82
2021/10/13 05:19:52;;;;;;;2.00;1.80;;;;;;;16.36;44.50;99499.69;4951619;29;20228;-82
2021/10/13 05:22:20;;;;;;;2.00;1.90;;;;;;;16.42;44.62;99513.00;4948744;29;20244;-81
2021/10/13 05:24:47;;;;;;;2.07;1.90;;;;;;;16.26;44.57;99527.47;4948931;29;20253;-81
2021/10/13 05:27:14;;;;;;;2.33;1.83;;;;;;;16.48;44.30;99522.75;4942031;29;20282;-82
2021/10/13 05:29:44;;;;;;;2.37;1.93;;;;;;;16.33;44.51;99508.34;4929754;29;20220;-82
2021/10/13 05:32:14;;;;;;;1.90;1.80;;;;;;;16.19;44.21;99524.97;4946971;29;20214;-82
2021/10/13 05:34:45;;;;;;;2.10;1.90;;;;;;;16.52;44.07;99540.06;4947768;29;20249;-81
2021/10/13 05:37:45;;;;;;;2.10;1.90;;;;;;;16.32;44.22;99539.94;4934068;29;20254;-82
2021/10/13 05:40:32;;;;;;;2.30;2.10;;;;;;;16.11;44.64;99546.25;4954321;29;20205;-81
2021/10/13 05:43:23;;;;;;;3.17;2.00;;;;;;;16.28;44.25;99560.47;4955306;29;20229;-81
2021/10/13 05:46:00;;;;;;;2.50;2.30;;;;;;;15.79;45.09;99571.38;4955078;29;20301;-81
2021/10/13 05:48:51;;;;;;;2.80;2.57;;;;;;;16.23;43.60;99573.94;4964739;23;20214;-81
2021/10/13 05:51:46;;;;;;;2.83;2.10;;;;;;;16.02;44.01;99583.75;4974981;29;20297;-81
2021/10/13 05:54:16;;;;;;;2.27;2.07;;;;;;;15.99;44.61;99578.03;4971747;23;20237;-81
2021/10/13 05:56:50;;;;;;;2.57;2.37;;;;;;;15.84;45.56;99586.81;4967978;23;20236;-81
2021/10/13 05:59:22;;;;;;;2.80;2.53;;;;;;;15.72;45.00;99580.75;4979426;23;20227;-81
2021/10/13 06:02:36;;;;;;;3.30;2.60;;;;;;;15.61;45.49;99608.72;4984295;23;20582;-83
2021/10/13 06:06:06;;;;;;;2.90;2.70;;;;;;;16.01;44.99;99611.84;4975499;23;20255;-83
2021/10/13 06:08:43;;;;;;;2.93;2.73;;;;;;;16.31;44.04;99603.19;4992127;23;20288;-81
2021/10/13 06:11:15;;;;;;;2.67;2.47;;;;;;;16.15;44.41;99618.47;4978914;23;20300;-81
2021/10/13 06:13:46;;;;;;;2.63;2.43;;;;;;;16.52;43.86;99613.09;4984899;23;20219;-83
2021/10/13 06:16:21;;;;;;;2.73;2.53;;;;;;;16.18;43.93;99623.38;4959017;29;20244;-83
2021/10/13 06:19:16;;;;;;;3.00;2.40;;;;;;;16.57;43.51;99615.84;4966471;23;20224;-81
2021/10/13 06:21:50;;;;;;;2.97;2.70;;;;;;;16.57;43.66;99615.84;4977588;28;20241;-81
2021/10/13 06:24:24;;;;;;;3.30;2.90;;;;;;;17.22;42.16;99622.78;4976069;29;20209;-81
2021/10/13 06:26:58;;;;;;;4.23;2.83;;;;;;;16.67;42.73;99629.47;4975185;23;20240;-81
2021/10/13 06:30:00;;;;;;;2.97;2.77;;;;;;;17.31;42.44;99629.31;4966787;28;20213;-82
2021/10/13 06:32:30;;;;;;;3.93;2.73;;;;;;;17.09;42.56;99656.56;4984935;23;20285;-81
2021/10/13 06:35:19;;;;;;;2.60;2.40;;;;;;;17.44;41.71;99647.84;4960561;29;20193;-81
2021/10/13 06:37:49;;;;;;;2.97;2.67;;;;;;;17.48;41.44;99638.09;4975952;29;20256;-82
2021/10/13 06:40:18;;;;;;;2.63;2.43;;;;;;;18.49;39.30;99654.63;4960629;23;20241;-80
2021/10/13 06:42:45;;;;;;;2.60;2.30;;;;;;;17.71;40.72;99655.81;4974545;23;20700;-80
2021/10/13 06:45:15;;;;;;;3.30;2.27;;;;;;;17.62;40.62;99660.13;4963669;23;20216;-80
2021/10/13 06:47:44;;;;;;;2.63;2.27;;;;;;;18.56;39.47;99667.16;4970421;23;20229;-79
2021/10/13 06:50:19;;;;;;;2.60;2.40;;;;;;;18.14;38.79;99665.44;4952638;29;20221;-79
2021/10/13 06:52:46;;;;;;;2.60;2.40;;;;;;;18.25;38.88;99675.22;4952712;29;20200;-79
2021/10/13 06:55:14;;;;;;;2.10;1.90;;;;;;;17.99;40.00;99671.63;4949999;29;20189;-79
2021/10/13 06:57:41;;;;;;;2.33;2.10;;;;;;;17.84;39.46;99676.19;4960447;23;20280;-79
2021/10/13 07:00:10;;;;;;;2.37;1.93;;;;;;;18.45;38.85;99688.00;4938564;29;20284;-79
2021/10/13 07:02:38;;;;;;;2.43;2.00;;;;;;;18.18;39.30;99674.66;4970586;29;20278;-79
2021/10/13 07:05:05;;;;;;;2.67;2.00;;;;;;;18.15;39.27;99679.81;4975490;23;20221;-79
2021/10/13 07:07:43;;;;;;;2.37;1.83;;;;;;;18.37;38.62;99681.22;4928266;23;20266;-79
2021/10/13 07:10:10;;;;;;;2.80;1.90;;;;;;;17.60;39.01;99683.94;4898084;29;20253;-78
2021/10/13 07:12:37;;;;;;;2.53;1.87;;;;;;;17.85;39.15;99685.94;4964173;23;20248;-79
2021/10/13 07:15:18;;;;;;;2.87;2.10;;;;;;;17.56;39.19;99686.34;4955274;29;20225;-78
2021/10/13 07:17:50;;;;;;;3.37;1.90;;;;;;;17.58;39.48;99689.66;4976619;23;20305;-79
2021/10/13 07:20:20;;;;;;;2.53;2.00;;;;;;;17.60;38.96;99683.94;4954889;29;20235;-79
2021/10/13 07:22:49;;;;;;;2.10;1.90;;;;;;;17.87;38.57;99690.00;4971416;29;20227;-79
2021/10/13 07:25:21;;;;;;;2.53;1.90;;;;;;;17.87;38.00;99700.06;4970053;29;20292;-79
2021/10/13 07:28:03;;;;;;;3.30;1.80;;;;;;;18.52;37.88;99721.13;4972528;29;20217;-78
2021/10/13 07:30:35;;;;;;;2.10;1.90;;;;;;;17.92;38.22;99692.75;4979695;23;20231;-81
2021/10/13 07:33:16;;;;;;;2.67;1.80;;;;;;;18.78;37.15;99717.38;4980838;23;20296;-79
2021/10/13 07:35:58;;;;;;;2.57;1.90;;;;;;;18.25;36.97;99705.03;4973682;29;20220;-79
2021/10/13 07:38:53;;;;;;;2.13;1.70;;;;;;;18.16;37.52;99713.97;4969381;23;20251;-79
2021/10/13 07:41:53;;;;;;;3.20;1.93;;;;;;;18.47;37.19;99713.78;4945393;23;20233;31
2021/10/13 07:44:31;;;;;;;2.47;1.80;;;;;;;18.47;37.50;99721.91;4877596;29;20284;-79
2021/10/13 07:47:08;;;;;;;2.27;1.63;;;;;;;18.73;36.67;99719.25;4919280;23;20257;-79
2021/10/13 07:49:36;;;;;;;1.90;1.50;;;;;;;18.41;36.88;99716.75;4945774;23;20532;-79
2021/10/13 07:52:04;;;;;;;1.43;1.33;;;;;;;18.54;36.86;99721.69;4955046;29;20271;-79
2021/10/13 07:54:32;;;;;;;1.90;1.47;;;;;;;18.02;37.77;99724.50;4952651;29;20236;-79
2021/10/13 07:56:59;;;;;;;4.00;1.70;;;;;;;18.80;36.71;99726.03;4966686;29;20500;-79
2021/10/13 07:59:27;;;;;;;2.50;1.63;;;;;;;18.60;37.23;99722.50;4964474;23;20302;-80
2021/10/13 08:01:55;;;;;;;1.50;1.40;;;;;;;19.03;36.22;99723.88;4950105;29;20225;-82
2021/10/13 08:04:22;;;;;;;1.57;1.43;;;;;;;18.94;36.32;99725.50;4950226;29;20251;-82
2021/10/13 08:06:49;;;;;;;1.83;1.43;;;;;;;19.08;36.35;99726.59;4966551;29;20217;-81
2021/10/13 08:09:18;;;;;;;3.17;1.83;;;;;;;19.27;35.69;99736.59;4975775;23;20248;-82
2021/10/13 08:11:47;;;;;;;1.30;1.20;;;;;;;19.58;35.43;99731.16;4966540;28;20320;-82
2021/10/13 08:14:16;;;;;;;2.50;1.50;;;;;;;19.73;34.64;99731.94;4963134;28;20237;-83
2021/10/13 08:16:45;;;;;;;1.80;1.40;;;;;;;20.22;33.74;99734.69;4968632;28;20314;-83
2021/10/13 08:19:13;;;;;;;2.17;1.50;;;;;;;19.90;34.39;99720.72;4967886;29;20238;-81
2021/10/13 08:21:41;;;;;;;1.97;1.10;;;;;;;19.93;34.20;99727.47;4966683;29;20228;-81
2021/10/13 08:24:07;;;;;;;2.27;1.10;;;;;;;19.82;34.27;99725.91;4964835;28;20228;-81
2021/10/13 08:26:34;;;;;;;1.30;1.10;;;;;;;19.93;34.11;99735.63;4966384;28;20242;-82
2021/10/13 08:29:02;;;;;;;1.23;0.90;;;;;;;18.87;34.13;99736.63;4967045;28;20240;-83
2021/10/13 08:31:29;;;;;;;1.63;1.13;;;;;;;19.07;34.03;99731.22;4967038;29;20189;-81
2021/10/13 08:33:58;;;;;;;1.27;1.07;;;;;;;19.54;33.49;99736.34;4949949;29;20696;-81
2021/10/13 08:36:27;;;;;;;1.30;1.20;;;;;;;19.39;34.29;99739.03;4974368;23;20232;-80
2021/10/13 08:38:55;;;;;;;2.77;1.40;;;;;;;18.97;34.53;99736.63;4965846;29;20240;-82
2021/10/13 08:41:23;;;;;;;1.30;1.10;;;;;;;19.65;34.07;99748.78;4929981;29;20239;-82
2021/10/13 08:43:53;;;;;;;1.90;1.10;;;;;;;19.44;33.81;99730.09;4965290;29;20209;-83
2021/10/13 08:46:22;;;;;;;1.87;1.20;;;;;;;19.20;33.93;99719.78;4964950;29;20305;-81
2021/10/13 08:48:50;;;;;;;2.20;1.07;;;;;;;18.96;34.17;99739.63;4949821;29;20239;-82
2021/10/13 08:51:17;;;;;;;2.13;1.10;;;;;;;19.84;33.56;99732.69;4950977;29;20633;-83
2021/10/13 08:53:45;;;;;;;1.43;1.13;;;;;;;20.60;32.24;99744.03;4951679;29;20229;-83
2021/10/13 08:56:11;;;;;;;1.30;1.20;;;;;;;19.88;33.20;99750.06;4944849;29;20220;-82
2021/10/13 08:58:42;;;;;;;2.20;1.30;;;;;;;19.82;33.17;99758.53;4948885;29;20539;-82
2021/10/13 09:01:11;;;;;;;2.27;1.50;;;;;;;19.88;33.09;99747.34;4953482;23;20243;-81
2021/10/13 09:03:40;;;;;;;2.10;1.30;;;;;;;19.98;33.02;99757.38;4946080;29;20300;-82
2021/10/13 09:06:25;;;;;;;1.47;1.23;;;;;;;19.66;33.67;99757.75;4958674;23;20241;-82
2021/10/13 09:09:05;;;;;;;2.97;1.50;;;;;;;20.63;32.55;99751.63;4951545;29;20333;-82
2021/10/13 09:11:42;;;;;;;2.10;1.40;;;;;;;20.50;31.70;99746.00;4952148;29;20220;-82
2021/10/13 09:14:31;;;;;;;1.80;1.40;;;;;;;21.18;31.49;99751.53;4952124;29;20232;-82
2021/10/13 09:17:09;;;;;;;2.40;1.60;;;;;;;20.86;31.50;99750.09;4968523;28;20236;-81
2021/10/13 09:19:47;;;;;;;2.40;1.83;;;;;;;20.50;32.20;99738.66;4952916;29;20228;-81
2021/10/13 09:22:16;;;;;;;3.37;1.77;;;;;;;20.68;32.35;99745.31;4967739;29;20684;-82
2021/10/13 09:24:50;;;;;;;2.03;1.57;;;;;;;20.33;32.31;99729.22;4953502;29;20231;-83
2021/10/13 09:27:21;;;;;;;2.20;1.83;;;;;;;20.69;32.13;99736.06;4950575;28;20248;-83
2021/10/13 09:29:49;;;;;;;1.97;1.50;;;;;;;20.64;31.96;99727.94;4956957;29;20213;-82
2021/10/13 09:32:22;;;;;;;1.50;1.40;;;;;;;21.08;30.81;99744.22;4972787;29;20303;-83
2021/10/13 09:34:51;;;;;;;1.53;1.33;;;;;;;20.10;31.36;99733.41;4956387;29;20307;-81
2021/10/13 09:37:19;;;;;;;1.57;1.47;;;;;;;19.76;32.42;99714.25;4944336;29;20604;-81
2021/10/13 09:40:06;;;;;;;2.13;1.70;;;;;;;19.93;32.70;99736.47;4953085;29;20699;-82
2021/10/13 09:42:39;;;;;;;1.50;1.40;;;;;;;20.40;32.44;99754.22;4968601;29;20220;-82
2021/10/13 09:45:13;;;;;;;2.53;1.40;;;;;;;20.83;31.77;99747.13;4969375;29;20232;-82
2021/10/13 09:47:41;;;;;;;1.53;1.43;;;;;;;20.81;31.36;99739.22;4952524;29;20280;-82
2021/10/13 09:50:13;;;;;;;1.50;1.40;;;;;;;20.98;30.82;99753.28;4937488;29;20645;-83
2021/10/13 09:52:40;;;;;;;1.73;0.90;;;;;;;20.70;30.87;99755.94;4952270;29;20224;-82
2021/10/13 09:55:12;;;;;;;1.10;0.90;;;;;;;20.16;30.08;99749.41;4954142;29;20671;-82
2021/10/13 09:57:45;;;;;;;2.00;1.10;;;;;;;20.80;29.82;99742.25;4954718;29;20235;-82
2021/10/13 10:00:13;;;;;;;1.73;0.90;;;;;;;20.32;29.99;99731.13;4936902;29;20220;-82
2021/10/13 10:02:54;;;;;;;4.50;1.30;;;;;;;21.25;28.96;99744.63;4941916;29;20229;-83
2021/10/13 10:05:31;;;;;;;1.10;0.83;;;;;;;20.59;29.95;99749.75;4951912;29;20686;-82
2021/10/13 10:08:11;;;;;;;2.70;1.13;;;;;;;21.23;29.37;99744.09;4950989;29;20231;-82
2021/10/13 10:11:02;;;;;;;0.90;0.83;;;;;;;21.72;29.44;99741.16;4950643;29;20224;-82
2021/10/13 10:13:36;;;;;;;1.80;1.10;;;;;;;21.85;28.18;99735.00;4935034;29;20232;-82
2021/10/13 10:16:09;;;;;;;0.93;0.90;;;;;;;21.74;27.95;99738.94;4935316;29;20591;-82
2021/10/13 10:18:43;;;;;;;1.93;1.33;;;;;;;21.78;27.95;99740.00;4962744;29;20228;-82
2021/10/13 10:21:26;;;;;;;0.73;0.70;;;;;;;21.25;27.60;99741.09;4967540;29;20229;-82
2021/10/13 10:23:58;;;;;;;0.97;0.87;;;;;;;20.60;27.58;99730.41;4967739;29;20234;-82
2021/10/13 10:26:25;;;;;;;1.93;0.70;;;;;;;20.66;27.69;99739.38;4948658;29;20240;-81
2021/10/13 10:28:57;;;;;;;3.30;0.80;;;;;;;21.21;27.32;99740.84;4939553;29;20272;-82
2021/10/13 10:31:27;;;;;;;1.30;0.80;;;;;;;20.79;27.44;99736.00;4945166;29;20256;-82
2021/10/13 10:34:06;;;;;;;2.00;0.70;;;;;;;21.20;27.26;99733.78;4961845;29;20235;-82
2021/10/13 10:36:33;;;;;;;1.73;0.60;;;;;;;21.47;27.60;99728.59;4941854;29;20608;-82
2021/10/13 10:39:21;;;;;;;1.33;0.80;;;;;;;21.40;26.93;99719.16;4954411;28;20260;-82
2021/10/13 10:41:54;;;;;;;1.30;0.70;;;;;;;21.76;26.63;99723.09;4952882;29;20235;-80
2021/10/13 10:44:33;;;;;;;1.10;0.50;;;;;;;22.12;25.91;99720.75;4952646;23;20240;-82
2021/10/13 10:47:27;;;;;;;0.43;0.37;;;;;;;22.58;25.13;99715.50;4937256;29;20225;-82
2021/10/13 10:49:55;;;;;;;1.57;0.60;;;;;;;22.98;25.37;99724.97;4977814;23;20241;-82
2021/10/13 10:52:29;;;;;;;1.00;0.70;;;;;;;22.46;25.05;99722.47;4957695;23;20245;31
2021/10/13 10:55:04;;;;;;;0.67;0.60;;;;;;;21.78;25.00;99723.63;4915960;29;20262;-82
2021/10/13 10:57:39;;;;;;;1.77;0.60;;;;;;;22.05;25.48;99725.78;4935186;29;20308;-81
2021/10/13 11:00:10;;;;;;;0.73;0.60;;;;;;;21.83;25.37;99720.84;4921719;29;20332;-82
2021/10/13 11:02:38;;;;;;;0.77;0.50;;;;;;;21.44;26.32;99728.38;4915665;29;20226;-82
2021/10/13 11:05:12;;;;;;;1.17;0.70;;;;;;;20.97;26.88;99726.31;4935932;29;20221;-81
2021/10/13 11:07:42;;;;;;;1.50;0.60;;;;;;;20.43;27.72;99721.03;4930049;29;20324;-82
2021/10/13 11:10:12;;;;;;;1.17;0.67;;;;;;;20.65;28.06;99724.13;4911952;29;20321;-82
2021/10/13 11:12:57;;;;;;;1.50;0.70;;;;;;;20.39;28.31;99736.28;4899461;29;20300;-82
2021/10/13 11:15:33;;;;;;;2.27;0.63;;;;;;;19.41;29.29;99725.19;4912848;29;20230;-82
2021/10/13 11:18:15;;;;;;;0.60;0.60;;;;;;;19.23;29.84;99746.38;4944650;23;20297;-83
2021/10/13 11:20:45;;;;;;;1.03;0.80;;;;;;;18.40;31.21;99748.47;4901246;29;20233;-83
2021/10/13 11:23:16;;;;;;;1.13;0.87;;;;;;;19.01;30.30;99735.00;4931774;29;20217;-82
2021/10/13 11:25:45;;;;;;;1.43;0.70;;;;;;;19.20;30.27;99752.38;4932053;29;20233;-82
2021/10/13 11:28:17;;;;;;;2.67;0.70;;;;;;;19.68;29.40;99721.06;4929417;29;20225;-82
2021/10/13 11:30:49;;;;;;;1.20;0.70;;;;;;;20.35;28.57;99737.91;4946317;29;20605;-82
2021/10/13 11:33:19;;;;;;;0.83;0.50;;;;;;;20.67;28.08;99724.63;4949283;29;20233;-83
2021/10/13 11:35:49;;;;;;;2.20;0.77;;;;;;;20.16;29.02;99711.31;4931800;29;20233;-83
2021/10/13 11:38:18;;;;;;;1.37;0.83;;;;;;;20.81;28.83;99735.72;4942123;29;20696;-83
2021/10/13 11:40:49;;;;;;;0.80;0.80;;;;;;;21.33;28.54;99735.81;4932348;29;20308;-82
2021/10/13 11:43:18;;;;;;;1.53;1.27;;;;;;;21.46;29.20;99737.09;4948393;29;20269;-82
2021/10/13 11:45:52;;;;;;;1.87;1.50;;;;;;;20.99;30.45;99735.03;4933616;29;20226;-83
2021/10/13 11:48:29;;;;;;;3.77;2.07;;;;;;;21.34;30.68;99750.25;4908794;29;20231;-82
2021/10/13 11:51:08;;;;;;;2.80;1.63;;;;;;;21.90;30.21;99734.94;4911238;29;20534;-83
2021/10/13 11:53:36;;;;;;;2.00;1.70;;;;;;;22.10;29.89;99733.09;4895639;29;20297;-83
2021/10/13 11:56:11;;;;;;;1.20;1.10;;;;;;;21.71;28.82;99734.06;4884762;29;20254;-82
2021/10/13 11:58:43;;;;;;;4.07;0.80;;;;;;;21.34;28.21;99723.00;4910045;29;20623;-83
2021/10/13 12:01:15;;;;;;;1.73;1.00;;;;;;;21.18;28.24;99729.72;4909985;29;20293;-83
2021/10/13 12:03:47;;;;;;;1.10;1.00;;;;;;;20.76;29.02;99730.31;4900274;23;20730;-83
2021/10/13 12:06:17;;;;;;;1.87;0.90;;;;;;;21.45;28.11;99733.53;4887188;29;20218;-82
2021/10/13 12:08:43;;;;;;;1.53;0.87;;;;;;;21.04;28.46;99733.06;4896742;29;20258;-83
2021/10/13 12:11:21;;;;;;;1.93;0.70;;;;;;;20.85;28.35;99737.59;4927101;29;20241;-82
2021/10/13 12:13:51;;;;;;;0.97;0.60;;;;;;;21.23;28.17;99726.94;4926939;29;20721;-83
2021/10/13 12:16:41;;;;;;;2.07;0.77;;;;;;;21.11;27.71;99724.56;4899383;29;20249;-83